sensor_id;sensor_type;location;lat;lon;timestamp;temperature;humidity
17236;DHT22;8734;59.272;17.780;2023-03-03T00:01:37;4.70;99.90
17236;DHT22;8734;59.272;17.780;2023-03-03T00:04:06;4.70;99.90
17236;DHT22;8734;59.272;17.780;2023-03-03T00:06:34;4.70;99.90
17236;DHT22;8734;59.272;17.780;2023-03-03T00:09:04;4.80;99.90
17236;DHT22;8734;59.272;17.780;2023-03-03T00:11:32;4.80;99.90
17236;DHT22;8734;59.272;17.780;2023-03-03T00:14:01;4.80;99.90
17236;DHT22;8734;59.272;17.780;2023-03-03T00:16:31;4.80;99.90
17236;DHT22;8734;59.272;17.780;2023-03-03T00:19:12;4.80;99.90
17236;DHT22;8734;59.272;17.780;2023-03-03T00:21:44;4.70;99.90
17236;DHT22;8734;59.272;17.780;2023-03-03T00:24:24;4.70;99.90
17236;DHT22;8734;59.272;17.780;2023-03-03T00:27:01;4.60;99.90
17236;DHT22;8734;59.272;17.780;2023-03-03T00:29:36;4.60;99.90
17236;DHT22;8734;59.272;17.780;2023-03-03T00:32:20;4.60;99.90
17236;DHT22;8734;59.272;17.780;2023-03-03T00:34:50;4.40;99.90
17236;DHT22;8734;59.272;17.780;2023-03-03T00:37:25;4.40;99.90
17236;DHT22;8734;59.272;17.780;2023-03-03T00:39:58;4.30;99.90
17236;DHT22;8734;59.272;17.780;2023-03-03T00:42:28;4.20;99.90
17236;DHT22;8734;59.272;17.780;2023-03-03T00:44:57;4.30;99.90
17236;DHT22;8734;59.272;17.780;2023-03-03T00:47:28;4.30;99.90
17236;DHT22;8734;59.272;17.780;2023-03-03T00:50:29;4.20;99.90
17236;DHT22;8734;59.272;17.780;2023-03-03T00:53:04;4.10;99.90
17236;DHT22;8734;59.272;17.780;2023-03-03T00:55:34;4.10;99.90
17236;DHT22;8734;59.272;17.780;2023-03-03T00:58:03;4.10;99.90
17236;DHT22;8734;59.272;17.780;2023-03-03T01:00:32;4.00;99.90
17236;DHT22;8734;59.272;17.780;2023-03-03T01:03:02;4.00;99.90
17236;DHT22;8734;59.272;17.780;2023-03-03T01:05:31;4.00;99.90
17236;DHT22;8734;59.272;17.780;2023-03-03T01:08:00;4.00;99.90
17236;DHT22;8734;59.272;17.780;2023-03-03T01:10:30;4.00;99.90
17236;DHT22;8734;59.272;17.780;2023-03-03T01:13:01;4.00;99.90
17236;DHT22;8734;59.272;17.780;2023-03-03T01:15:30;4.00;99.90
17236;DHT22;8734;59.272;17.780;2023-03-03T01:17:58;4.00;99.90
17236;DHT22;8734;59.272;17.780;2023-03-03T01:20:27;4.00;99.90
17236;DHT22;8734;59.272;17.780;2023-03-03T01:22:55;4.00;99.90
17236;DHT22;8734;59.272;17.780;2023-03-03T01:25:24;3.90;99.90
17236;DHT22;8734;59.272;17.780;2023-03-03T01:27:53;3.90;99.90
17236;DHT22;8734;59.272;17.780;2023-03-03T01:30:23;3.80;99.90
17236;DHT22;8734;59.272;17.780;2023-03-03T01:32:52;3.80;99.90
17236;DHT22;8734;59.272;17.780;2023-03-03T01:35:21;3.70;99.90
17236;DHT22;8734;59.272;17.780;2023-03-03T01:37:49;3.70;99.90
17236;DHT22;8734;59.272;17.780;2023-03-03T01:40:20;3.70;99.90
17236;DHT22;8734;59.272;17.780;2023-03-03T01:42:49;3.60;99.90
17236;DHT22;8734;59.272;17.780;2023-03-03T01:45:20;3.60;99.90
17236;DHT22;8734;59.272;17.780;2023-03-03T01:47:57;3.60;99.90
17236;DHT22;8734;59.272;17.780;2023-03-03T01:50:33;3.50;99.90
17236;DHT22;8734;59.272;17.780;2023-03-03T01:53:05;3.50;99.90
17236;DHT22;8734;59.272;17.780;2023-03-03T01:55:36;3.40;99.90
17236;DHT22;8734;59.272;17.780;2023-03-03T01:58:09;3.40;99.90
17236;DHT22;8734;59.272;17.780;2023-03-03T02:00:40;3.40;99.90
17236;DHT22;8734;59.272;17.780;2023-03-03T02:03:11;3.40;99.90
17236;DHT22;8734;59.272;17.780;2023-03-03T02:05:40;3.40;99.90
17236;DHT22;8734;59.272;17.780;2023-03-03T02:08:11;3.50;99.90
17236;DHT22;8734;59.272;17.780;2023-03-03T02:10:44;3.50;99.90
17236;DHT22;8734;59.272;17.780;2023-03-03T02:13:13;3.50;99.90
17236;DHT22;8734;59.272;17.780;2023-03-03T02:15:41;3.40;99.90
17236;DHT22;8734;59.272;17.780;2023-03-03T02:18:14;3.40;99.90
17236;DHT22;8734;59.272;17.780;2023-03-03T02:20:49;3.50;99.90
17236;DHT22;8734;59.272;17.780;2023-03-03T02:23:22;3.60;99.90
17236;DHT22;8734;59.272;17.780;2023-03-03T02:26:04;3.50;99.90
17236;DHT22;8734;59.272;17.780;2023-03-03T02:28:35;3.50;99.90
17236;DHT22;8734;59.272;17.780;2023-03-03T02:31:07;3.50;99.90
17236;DHT22;8734;59.272;17.780;2023-03-03T02:33:40;3.50;99.90
17236;DHT22;8734;59.272;17.780;2023-03-03T02:36:11;3.40;99.90
17236;DHT22;8734;59.272;17.780;2023-03-03T02:38:43;3.40;99.90
17236;DHT22;8734;59.272;17.780;2023-03-03T02:41:20;3.40;99.90
17236;DHT22;8734;59.272;17.780;2023-03-03T02:43:58;3.40;99.90
17236;DHT22;8734;59.272;17.780;2023-03-03T02:46:27;3.40;99.90
17236;DHT22;8734;59.272;17.780;2023-03-03T02:48:56;3.40;99.90
17236;DHT22;8734;59.272;17.780;2023-03-03T02:51:24;3.30;99.90
17236;DHT22;8734;59.272;17.780;2023-03-03T02:53:53;3.40;99.90
17236;DHT22;8734;59.272;17.780;2023-03-03T02:56:23;3.50;99.90
17236;DHT22;8734;59.272;17.780;2023-03-03T02:58:51;3.40;99.90
17236;DHT22;8734;59.272;17.780;2023-03-03T03:01:20;3.40;99.90
17236;DHT22;8734;59.272;17.780;2023-03-03T03:03:48;3.30;99.90
17236;DHT22;8734;59.272;17.780;2023-03-03T03:06:17;3.40;99.90
17236;DHT22;8734;59.272;17.780;2023-03-03T03:08:45;3.40;99.90
17236;DHT22;8734;59.272;17.780;2023-03-03T03:11:13;3.40;99.90
17236;DHT22;8734;59.272;17.780;2023-03-03T03:13:43;3.30;99.90
17236;DHT22;8734;59.272;17.780;2023-03-03T03:16:12;3.30;99.90
17236;DHT22;8734;59.272;17.780;2023-03-03T03:18:40;3.30;99.90
17236;DHT22;8734;59.272;17.780;2023-03-03T03:21:10;3.30;99.90
17236;DHT22;8734;59.272;17.780;2023-03-03T03:23:39;3.30;99.90
17236;DHT22;8734;59.272;17.780;2023-03-03T03:26:08;3.20;99.90
17236;DHT22;8734;59.272;17.780;2023-03-03T03:28:36;3.10;99.90
17236;DHT22;8734;59.272;17.780;2023-03-03T03:31:07;3.10;99.90
17236;DHT22;8734;59.272;17.780;2023-03-03T03:33:36;3.00;99.90
17236;DHT22;8734;59.272;17.780;2023-03-03T03:36:06;3.00;99.90
17236;DHT22;8734;59.272;17.780;2023-03-03T03:38:35;3.00;99.90
17236;DHT22;8734;59.272;17.780;2023-03-03T03:41:05;2.90;99.90
17236;DHT22;8734;59.272;17.780;2023-03-03T03:43:34;2.90;99.90
17236;DHT22;8734;59.272;17.780;2023-03-03T03:46:02;2.90;99.90
17236;DHT22;8734;59.272;17.780;2023-03-03T03:48:32;2.90;99.90
17236;DHT22;8734;59.272;17.780;2023-03-03T03:51:01;2.90;99.90
17236;DHT22;8734;59.272;17.780;2023-03-03T03:53:29;2.90;99.90
17236;DHT22;8734;59.272;17.780;2023-03-03T03:55:58;3.00;99.90
17236;DHT22;8734;59.272;17.780;2023-03-03T03:58:27;2.90;99.90
17236;DHT22;8734;59.272;17.780;2023-03-03T04:01:01;2.90;99.90
17236;DHT22;8734;59.272;17.780;2023-03-03T04:03:32;2.90;99.90
17236;DHT22;8734;59.272;17.780;2023-03-03T04:06:00;2.80;99.90
17236;DHT22;8734;59.272;17.780;2023-03-03T04:08:28;2.80;99.90
17236;DHT22;8734;59.272;17.780;2023-03-03T04:10:57;2.70;99.90
17236;DHT22;8734;59.272;17.780;2023-03-03T04:13:25;2.70;99.90
17236;DHT22;8734;59.272;17.780;2023-03-03T04:15:54;2.70;99.90
17236;DHT22;8734;59.272;17.780;2023-03-03T04:18:23;2.60;99.90
17236;DHT22;8734;59.272;17.780;2023-03-03T04:20:53;2.60;99.90
17236;DHT22;8734;59.272;17.780;2023-03-03T04:23:21;2.60;99.90
17236;DHT22;8734;59.272;17.780;2023-03-03T04:25:50;2.60;99.90
17236;DHT22;8734;59.272;17.780;2023-03-03T04:28:18;2.50;99.90
17236;DHT22;8734;59.272;17.780;2023-03-03T04:30:47;2.50;99.90
17236;DHT22;8734;59.272;17.780;2023-03-03T04:33:16;2.40;99.90
17236;DHT22;8734;59.272;17.780;2023-03-03T04:35:44;2.50;99.90
17236;DHT22;8734;59.272;17.780;2023-03-03T04:38:14;2.40;99.90
17236;DHT22;8734;59.272;17.780;2023-03-03T04:40:43;2.30;99.90
17236;DHT22;8734;59.272;17.780;2023-03-03T04:43:12;2.30;99.90
17236;DHT22;8734;59.272;17.780;2023-03-03T04:45:43;2.30;99.90
17236;DHT22;8734;59.272;17.780;2023-03-03T04:48:12;2.40;99.90
17236;DHT22;8734;59.272;17.780;2023-03-03T04:50:40;2.30;99.90
17236;DHT22;8734;59.272;17.780;2023-03-03T04:53:09;2.30;99.90
17236;DHT22;8734;59.272;17.780;2023-03-03T04:55:38;2.20;99.90
17236;DHT22;8734;59.272;17.780;2023-03-03T04:58:07;2.20;99.90
17236;DHT22;8734;59.272;17.780;2023-03-03T05:00:36;2.20;99.90
17236;DHT22;8734;59.272;17.780;2023-03-03T05:03:05;2.20;99.90
17236;DHT22;8734;59.272;17.780;2023-03-03T05:05:33;2.20;99.90
17236;DHT22;8734;59.272;17.780;2023-03-03T05:08:01;2.20;99.90
17236;DHT22;8734;59.272;17.780;2023-03-03T05:10:30;2.20;99.90
17236;DHT22;8734;59.272;17.780;2023-03-03T05:13:02;2.20;99.90
17236;DHT22;8734;59.272;17.780;2023-03-03T05:15:31;2.10;99.90
17236;DHT22;8734;59.272;17.780;2023-03-03T05:18:00;2.00;99.90
17236;DHT22;8734;59.272;17.780;2023-03-03T05:20:28;2.00;99.90
17236;DHT22;8734;59.272;17.780;2023-03-03T05:22:56;2.00;99.90
17236;DHT22;8734;59.272;17.780;2023-03-03T05:25:27;1.90;99.90
17236;DHT22;8734;59.272;17.780;2023-03-03T05:27:55;1.90;99.90
17236;DHT22;8734;59.272;17.780;2023-03-03T05:30:26;2.00;99.90
17236;DHT22;8734;59.272;17.780;2023-03-03T05:32:54;2.00;99.90
17236;DHT22;8734;59.272;17.780;2023-03-03T05:35:22;2.00;99.90
17236;DHT22;8734;59.272;17.780;2023-03-03T05:37:51;2.10;99.90
17236;DHT22;8734;59.272;17.780;2023-03-03T05:40:19;2.10;99.90
17236;DHT22;8734;59.272;17.780;2023-03-03T05:42:47;2.10;99.90
17236;DHT22;8734;59.272;17.780;2023-03-03T05:45:16;2.10;99.90
17236;DHT22;8734;59.272;17.780;2023-03-03T05:47:47;2.10;99.90
17236;DHT22;8734;59.272;17.780;2023-03-03T05:50:16;2.10;99.90
17236;DHT22;8734;59.272;17.780;2023-03-03T05:52:47;2.10;99.90
17236;DHT22;8734;59.272;17.780;2023-03-03T05:55:15;2.20;99.90
17236;DHT22;8734;59.272;17.780;2023-03-03T05:57:44;2.20;99.90
17236;DHT22;8734;59.272;17.780;2023-03-03T06:00:14;2.10;99.90
17236;DHT22;8734;59.272;17.780;2023-03-03T06:02:43;2.10;99.90
17236;DHT22;8734;59.272;17.780;2023-03-03T06:05:13;2.20;99.90
17236;DHT22;8734;59.272;17.780;2023-03-03T06:07:41;2.10;99.90
17236;DHT22;8734;59.272;17.780;2023-03-03T06:10:10;2.10;99.90
17236;DHT22;8734;59.272;17.780;2023-03-03T06:12:38;2.10;99.90
17236;DHT22;8734;59.272;17.780;2023-03-03T06:15:08;2.10;99.90
17236;DHT22;8734;59.272;17.780;2023-03-03T06:17:37;2.10;99.90
17236;DHT22;8734;59.272;17.780;2023-03-03T06:20:06;2.10;99.90
17236;DHT22;8734;59.272;17.780;2023-03-03T06:22:36;2.10;99.90
17236;DHT22;8734;59.272;17.780;2023-03-03T06:25:04;2.10;99.90
17236;DHT22;8734;59.272;17.780;2023-03-03T06:27:33;2.10;99.90
17236;DHT22;8734;59.272;17.780;2023-03-03T06:30:01;2.00;99.90
17236;DHT22;8734;59.272;17.780;2023-03-03T06:32:29;2.00;99.90
17236;DHT22;8734;59.272;17.780;2023-03-03T06:34:58;2.00;99.90
17236;DHT22;8734;59.272;17.780;2023-03-03T06:37:26;2.00;99.90
17236;DHT22;8734;59.272;17.780;2023-03-03T06:39:56;2.10;99.90
17236;DHT22;8734;59.272;17.780;2023-03-03T06:42:25;2.10;99.90
17236;DHT22;8734;59.272;17.780;2023-03-03T06:44:53;2.10;99.90
17236;DHT22;8734;59.272;17.780;2023-03-03T06:47:21;2.20;99.90
17236;DHT22;8734;59.272;17.780;2023-03-03T06:49:50;2.20;99.90
17236;DHT22;8734;59.272;17.780;2023-03-03T06:52:23;2.30;99.90
17236;DHT22;8734;59.272;17.780;2023-03-03T06:54:54;2.30;99.90
17236;DHT22;8734;59.272;17.780;2023-03-03T06:57:26;2.40;99.90
17236;DHT22;8734;59.272;17.780;2023-03-03T06:59:57;2.40;99.90
17236;DHT22;8734;59.272;17.780;2023-03-03T07:02:27;2.50;99.90
17236;DHT22;8734;59.272;17.780;2023-03-03T07:04:56;2.50;99.90
17236;DHT22;8734;59.272;17.780;2023-03-03T07:07:24;2.50;99.90
17236;DHT22;8734;59.272;17.780;2023-03-03T07:09:55;2.50;99.90
17236;DHT22;8734;59.272;17.780;2023-03-03T07:12:26;2.60;99.90
17236;DHT22;8734;59.272;17.780;2023-03-03T07:15:10;2.60;99.90
17236;DHT22;8734;59.272;17.780;2023-03-03T07:17:42;2.80;99.90
17236;DHT22;8734;59.272;17.780;2023-03-03T07:20:17;3.00;99.90
17236;DHT22;8734;59.272;17.780;2023-03-03T07:22:47;3.10;99.90
17236;DHT22;8734;59.272;17.780;2023-03-03T07:25:21;3.10;99.90
17236;DHT22;8734;59.272;17.780;2023-03-03T07:27:58;3.20;99.90
17236;DHT22;8734;59.272;17.780;2023-03-03T07:30:28;3.30;99.90
17236;DHT22;8734;59.272;17.780;2023-03-03T07:32:57;3.40;99.90
17236;DHT22;8734;59.272;17.780;2023-03-03T07:35:36;3.50;99.90
17236;DHT22;8734;59.272;17.780;2023-03-03T07:38:19;3.60;99.90
17236;DHT22;8734;59.272;17.780;2023-03-03T07:40:52;3.70;99.90
17236;DHT22;8734;59.272;17.780;2023-03-03T07:43:42;3.80;99.90
17236;DHT22;8734;59.272;17.780;2023-03-03T07:46:25;3.80;99.90
17236;DHT22;8734;59.272;17.780;2023-03-03T07:48:55;3.90;99.90
17236;DHT22;8734;59.272;17.780;2023-03-03T07:51:26;4.00;99.90
17236;DHT22;8734;59.272;17.780;2023-03-03T07:54:14;4.00;99.90
17236;DHT22;8734;59.272;17.780;2023-03-03T07:56:45;4.10;99.90
17236;DHT22;8734;59.272;17.780;2023-03-03T07:59:19;4.10;99.90
17236;DHT22;8734;59.272;17.780;2023-03-03T08:01:51;4.20;99.90
17236;DHT22;8734;59.272;17.780;2023-03-03T08:04:25;4.30;99.90
17236;DHT22;8734;59.272;17.780;2023-03-03T08:06:55;4.30;99.90
17236;DHT22;8734;59.272;17.780;2023-03-03T08:09:38;4.40;99.90
17236;DHT22;8734;59.272;17.780;2023-03-03T08:15:19;4.50;99.90
17236;DHT22;8734;59.272;17.780;2023-03-03T08:17:49;4.60;99.90
17236;DHT22;8734;59.272;17.780;2023-03-03T08:20:42;4.60;99.90
17236;DHT22;8734;59.272;17.780;2023-03-03T08:23:12;4.70;99.90
17236;DHT22;8734;59.272;17.780;2023-03-03T08:25:41;4.60;99.90
17236;DHT22;8734;59.272;17.780;2023-03-03T08:28:09;4.60;99.90
17236;DHT22;8734;59.272;17.780;2023-03-03T08:30:40;4.60;99.90
17236;DHT22;8734;59.272;17.780;2023-03-03T08:33:09;4.60;99.90
17236;DHT22;8734;59.272;17.780;2023-03-03T08:35:37;4.80;99.90
17236;DHT22;8734;59.272;17.780;2023-03-03T08:38:06;4.90;99.90
17236;DHT22;8734;59.272;17.780;2023-03-03T08:40:35;4.90;99.90
17236;DHT22;8734;59.272;17.780;2023-03-03T08:43:04;4.90;99.90
17236;DHT22;8734;59.272;17.780;2023-03-03T08:45:33;5.00;99.90
17236;DHT22;8734;59.272;17.780;2023-03-03T08:48:03;5.10;99.90
17236;DHT22;8734;59.272;17.780;2023-03-03T08:50:32;5.20;99.90
17236;DHT22;8734;59.272;17.780;2023-03-03T08:53:00;5.30;99.90
17236;DHT22;8734;59.272;17.780;2023-03-03T08:55:28;5.40;99.90
17236;DHT22;8734;59.272;17.780;2023-03-03T08:57:56;5.70;99.90
17236;DHT22;8734;59.272;17.780;2023-03-03T09:00:25;5.80;99.90
17236;DHT22;8734;59.272;17.780;2023-03-03T09:02:54;5.90;99.90
17236;DHT22;8734;59.272;17.780;2023-03-03T09:05:24;5.90;99.90
17236;DHT22;8734;59.272;17.780;2023-03-03T09:07:53;6.00;99.90
17236;DHT22;8734;59.272;17.780;2023-03-03T09:10:24;6.30;99.90
17236;DHT22;8734;59.272;17.780;2023-03-03T09:12:57;6.20;99.90
17236;DHT22;8734;59.272;17.780;2023-03-03T09:15:29;6.10;99.90
17236;DHT22;8734;59.272;17.780;2023-03-03T09:17:58;6.00;99.90
17236;DHT22;8734;59.272;17.780;2023-03-03T09:20:34;6.00;99.90
17236;DHT22;8734;59.272;17.780;2023-03-03T09:23:29;6.10;99.90
17236;DHT22;8734;59.272;17.780;2023-03-03T09:29:15;7.00;99.90
17236;DHT22;8734;59.272;17.780;2023-03-03T09:31:47;7.50;99.90
17236;DHT22;8734;59.272;17.780;2023-03-03T09:34:22;8.10;99.90
17236;DHT22;8734;59.272;17.780;2023-03-03T09:36:53;8.20;99.90
17236;DHT22;8734;59.272;17.780;2023-03-03T09:39:23;8.10;99.90
17236;DHT22;8734;59.272;17.780;2023-03-03T09:48:32;7.40;99.90
17236;DHT22;8734;59.272;17.780;2023-03-03T09:51:17;7.40;99.90
17236;DHT22;8734;59.272;17.780;2023-03-03T09:54:09;7.50;99.90
17236;DHT22;8734;59.272;17.780;2023-03-03T09:56:48;7.10;99.90
17236;DHT22;8734;59.272;17.780;2023-03-03T09:59:27;6.70;99.90
17236;DHT22;8734;59.272;17.780;2023-03-03T10:02:26;6.40;99.90
17236;DHT22;8734;59.272;17.780;2023-03-03T10:05:11;6.10;99.90
17236;DHT22;8734;59.272;17.780;2023-03-03T10:07:52;6.00;99.90
17236;DHT22;8734;59.272;17.780;2023-03-03T10:13:24;6.00;99.90
17236;DHT22;8734;59.272;17.780;2023-03-03T10:16:12;6.00;99.90
17236;DHT22;8734;59.272;17.780;2023-03-03T10:18:46;5.80;99.90
17236;DHT22;8734;59.272;17.780;2023-03-03T10:21:20;5.70;99.90
17236;DHT22;8734;59.272;17.780;2023-03-03T10:23:53;5.60;99.90
17236;DHT22;8734;59.272;17.780;2023-03-03T10:26:57;5.50;99.90
17236;DHT22;8734;59.272;17.780;2023-03-03T10:29:47;5.50;99.90
17236;DHT22;8734;59.272;17.780;2023-03-03T10:32:29;5.30;99.90
17236;DHT22;8734;59.272;17.780;2023-03-03T10:38:16;5.00;99.90
17236;DHT22;8734;59.272;17.780;2023-03-03T10:40:51;4.80;99.90
17236;DHT22;8734;59.272;17.780;2023-03-03T10:43:40;4.60;99.90
17236;DHT22;8734;59.272;17.780;2023-03-03T10:46:34;4.20;99.90
17236;DHT22;8734;59.272;17.780;2023-03-03T10:49:13;3.90;99.90
17236;DHT22;8734;59.272;17.780;2023-03-03T10:51:58;3.80;99.90
17236;DHT22;8734;59.272;17.780;2023-03-03T10:54:42;3.60;99.90
17236;DHT22;8734;59.272;17.780;2023-03-03T10:57:19;3.50;99.90
17236;DHT22;8734;59.272;17.780;2023-03-03T11:00:13;3.40;99.90
17236;DHT22;8734;59.272;17.780;2023-03-03T11:02:52;3.30;99.90
17236;DHT22;8734;59.272;17.780;2023-03-03T11:05:31;3.20;99.90
17236;DHT22;8734;59.272;17.780;2023-03-03T11:08:06;3.10;99.90
17236;DHT22;8734;59.272;17.780;2023-03-03T11:10:57;3.00;99.90
17236;DHT22;8734;59.272;17.780;2023-03-03T11:13:35;2.90;99.90
17236;DHT22;8734;59.272;17.780;2023-03-03T11:16:42;2.90;99.90
17236;DHT22;8734;59.272;17.780;2023-03-03T11:19:46;2.90;99.90
17236;DHT22;8734;59.272;17.780;2023-03-03T11:22:32;2.90;99.90
17236;DHT22;8734;59.272;17.780;2023-03-03T11:25:10;2.90;99.90
17236;DHT22;8734;59.272;17.780;2023-03-03T11:27:58;3.00;99.90
17236;DHT22;8734;59.272;17.780;2023-03-03T11:30:34;3.00;99.90
17236;DHT22;8734;59.272;17.780;2023-03-03T11:33:11;3.00;99.90
17236;DHT22;8734;59.272;17.780;2023-03-03T11:35:45;3.10;99.90
17236;DHT22;8734;59.272;17.780;2023-03-03T11:38:29;3.20;99.90
17236;DHT22;8734;59.272;17.780;2023-03-03T11:41:07;3.20;99.90
17236;DHT22;8734;59.272;17.780;2023-03-03T11:43:42;3.30;99.90
17236;DHT22;8734;59.272;17.780;2023-03-03T11:46:14;3.40;99.90
17236;DHT22;8734;59.272;17.780;2023-03-03T11:48:52;3.40;99.90
17236;DHT22;8734;59.272;17.780;2023-03-03T11:51:33;3.50;99.90
17236;DHT22;8734;59.272;17.780;2023-03-03T11:54:08;3.50;99.90
17236;DHT22;8734;59.272;17.780;2023-03-03T11:56:40;3.60;99.90
17236;DHT22;8734;59.272;17.780;2023-03-03T11:59:35;3.60;99.90
17236;DHT22;8734;59.272;17.780;2023-03-03T12:02:14;3.60;99.90
17236;DHT22;8734;59.272;17.780;2023-03-03T12:04:49;3.60;99.90
17236;DHT22;8734;59.272;17.780;2023-03-03T12:07:25;3.70;99.90
17236;DHT22;8734;59.272;17.780;2023-03-03T12:10:02;3.60;99.90
17236;DHT22;8734;59.272;17.780;2023-03-03T12:12:35;3.70;99.90
17236;DHT22;8734;59.272;17.780;2023-03-03T12:15:16;3.80;99.90
17236;DHT22;8734;59.272;17.780;2023-03-03T12:17:57;3.70;99.90
17236;DHT22;8734;59.272;17.780;2023-03-03T12:20:35;3.80;99.90
17236;DHT22;8734;59.272;17.780;2023-03-03T12:23:17;3.80;99.90
17236;DHT22;8734;59.272;17.780;2023-03-03T12:25:51;3.90;99.90
17236;DHT22;8734;59.272;17.780;2023-03-03T12:28:27;3.90;99.90
17236;DHT22;8734;59.272;17.780;2023-03-03T12:31:17;3.90;99.90
17236;DHT22;8734;59.272;17.780;2023-03-03T12:33:53;4.00;99.90
17236;DHT22;8734;59.272;17.780;2023-03-03T12:39:43;4.20;99.90
17236;DHT22;8734;59.272;17.780;2023-03-03T12:42:20;4.30;99.90
17236;DHT22;8734;59.272;17.780;2023-03-03T12:45:00;4.30;99.90
17236;DHT22;8734;59.272;17.780;2023-03-03T12:47:37;4.30;99.90
17236;DHT22;8734;59.272;17.780;2023-03-03T12:50:20;4.20;99.90
17236;DHT22;8734;59.272;17.780;2023-03-03T12:53:00;4.30;99.90
17236;DHT22;8734;59.272;17.780;2023-03-03T12:55:44;4.30;99.90
17236;DHT22;8734;59.272;17.780;2023-03-03T12:58:24;4.50;99.90
17236;DHT22;8734;59.272;17.780;2023-03-03T13:01:02;4.60;99.90
17236;DHT22;8734;59.272;17.780;2023-03-03T13:03:39;4.70;99.90
17236;DHT22;8734;59.272;17.780;2023-03-03T13:06:27;4.80;99.90
17236;DHT22;8734;59.272;17.780;2023-03-03T13:09:11;4.90;99.90
17236;DHT22;8734;59.272;17.780;2023-03-03T13:11:56;5.00;99.90
17236;DHT22;8734;59.272;17.780;2023-03-03T13:14:34;5.10;99.90
17236;DHT22;8734;59.272;17.780;2023-03-03T13:17:16;5.20;99.90
17236;DHT22;8734;59.272;17.780;2023-03-03T13:19:50;5.30;99.90
17236;DHT22;8734;59.272;17.780;2023-03-03T13:22:36;5.30;99.90
17236;DHT22;8734;59.272;17.780;2023-03-03T13:25:34;5.30;99.90
17236;DHT22;8734;59.272;17.780;2023-03-03T13:28:17;5.30;99.90
17236;DHT22;8734;59.272;17.780;2023-03-03T13:30:49;5.30;99.90
17236;DHT22;8734;59.272;17.780;2023-03-03T13:33:24;5.30;99.90
17236;DHT22;8734;59.272;17.780;2023-03-03T13:35:57;5.30;99.90
17236;DHT22;8734;59.272;17.780;2023-03-03T13:38:29;5.30;99.90
17236;DHT22;8734;59.272;17.780;2023-03-03T13:41:08;5.30;99.90
17236;DHT22;8734;59.272;17.780;2023-03-03T13:43:43;5.30;99.90
17236;DHT22;8734;59.272;17.780;2023-03-03T13:46:18;5.30;99.90
17236;DHT22;8734;59.272;17.780;2023-03-03T13:49:04;5.40;99.90
17236;DHT22;8734;59.272;17.780;2023-03-03T13:51:41;5.50;99.90
17236;DHT22;8734;59.272;17.780;2023-03-03T13:54:19;5.50;99.90
17236;DHT22;8734;59.272;17.780;2023-03-03T13:57:06;5.50;99.90
17236;DHT22;8734;59.272;17.780;2023-03-03T13:59:45;5.40;99.90
17236;DHT22;8734;59.272;17.780;2023-03-03T14:02:42;5.40;99.90
17236;DHT22;8734;59.272;17.780;2023-03-03T14:05:14;5.40;99.90
17236;DHT22;8734;59.272;17.780;2023-03-03T14:07:48;5.30;99.90
17236;DHT22;8734;59.272;17.780;2023-03-03T14:10:23;5.40;99.90
17236;DHT22;8734;59.272;17.780;2023-03-03T14:13:01;5.50;99.90
17236;DHT22;8734;59.272;17.780;2023-03-03T14:15:32;5.50;99.90
17236;DHT22;8734;59.272;17.780;2023-03-03T14:18:17;5.60;99.90
17236;DHT22;8734;59.272;17.780;2023-03-03T14:20:51;5.60;99.90
17236;DHT22;8734;59.272;17.780;2023-03-03T14:23:24;5.70;99.90
17236;DHT22;8734;59.272;17.780;2023-03-03T14:25:59;5.80;99.90
17236;DHT22;8734;59.272;17.780;2023-03-03T14:28:39;5.90;99.90
17236;DHT22;8734;59.272;17.780;2023-03-03T14:31:19;5.90;99.90
17236;DHT22;8734;59.272;17.780;2023-03-03T14:34:00;6.00;99.90
17236;DHT22;8734;59.272;17.780;2023-03-03T14:36:38;6.00;99.90
17236;DHT22;8734;59.272;17.780;2023-03-03T14:39:27;6.00;99.90
17236;DHT22;8734;59.272;17.780;2023-03-03T14:41:58;6.00;99.90
17236;DHT22;8734;59.272;17.780;2023-03-03T14:44:30;6.00;99.90
17236;DHT22;8734;59.272;17.780;2023-03-03T14:47:21;6.00;99.90
17236;DHT22;8734;59.272;17.780;2023-03-03T14:49:50;6.00;99.90
17236;DHT22;8734;59.272;17.780;2023-03-03T14:52:23;6.00;99.90
17236;DHT22;8734;59.272;17.780;2023-03-03T14:54:54;6.00;99.90
17236;DHT22;8734;59.272;17.780;2023-03-03T14:57:38;6.00;99.90
17236;DHT22;8734;59.272;17.780;2023-03-03T15:00:30;5.90;99.90
17236;DHT22;8734;59.272;17.780;2023-03-03T15:03:16;6.00;99.90
17236;DHT22;8734;59.272;17.780;2023-03-03T15:05:49;5.90;99.90
17236;DHT22;8734;59.272;17.780;2023-03-03T15:08:26;6.00;99.90
17236;DHT22;8734;59.272;17.780;2023-03-03T15:11:12;6.00;99.90
17236;DHT22;8734;59.272;17.780;2023-03-03T15:13:41;5.90;99.90
17236;DHT22;8734;59.272;17.780;2023-03-03T15:16:16;6.00;99.90
17236;DHT22;8734;59.272;17.780;2023-03-03T15:22:13;6.00;99.90
17236;DHT22;8734;59.272;17.780;2023-03-03T15:24:49;5.90;99.90
17236;DHT22;8734;59.272;17.780;2023-03-03T15:27:21;5.80;99.90
17236;DHT22;8734;59.272;17.780;2023-03-03T15:30:01;5.80;99.90
17236;DHT22;8734;59.272;17.780;2023-03-03T15:32:37;5.80;99.90
17236;DHT22;8734;59.272;17.780;2023-03-03T15:35:20;5.70;99.90
17236;DHT22;8734;59.272;17.780;2023-03-03T15:37:56;5.60;99.90
17236;DHT22;8734;59.272;17.780;2023-03-03T15:40:28;5.60;99.90
17236;DHT22;8734;59.272;17.780;2023-03-03T15:43:04;5.60;99.90
17236;DHT22;8734;59.272;17.780;2023-03-03T15:45:43;5.50;99.90
17236;DHT22;8734;59.272;17.780;2023-03-03T15:48:30;5.50;99.90
17236;DHT22;8734;59.272;17.780;2023-03-03T15:51:07;5.40;99.90
17236;DHT22;8734;59.272;17.780;2023-03-03T15:53:57;5.40;99.90
17236;DHT22;8734;59.272;17.780;2023-03-03T15:56:36;5.30;99.90
17236;DHT22;8734;59.272;17.780;2023-03-03T15:59:33;5.30;99.90
17236;DHT22;8734;59.272;17.780;2023-03-03T16:02:14;5.30;99.90
17236;DHT22;8734;59.272;17.780;2023-03-03T16:04:54;5.40;99.90
17236;DHT22;8734;59.272;17.780;2023-03-03T16:07:33;5.40;99.90
17236;DHT22;8734;59.272;17.780;2023-03-03T16:10:13;5.40;99.90
17236;DHT22;8734;59.272;17.780;2023-03-03T16:12:53;5.30;99.90
17236;DHT22;8734;59.272;17.780;2023-03-03T16:15:36;5.40;99.90
17236;DHT22;8734;59.272;17.780;2023-03-03T16:18:16;5.40;99.90
17236;DHT22;8734;59.272;17.780;2023-03-03T16:20:54;5.30;99.90
17236;DHT22;8734;59.272;17.780;2023-03-03T16:23:30;5.30;99.90
17236;DHT22;8734;59.272;17.780;2023-03-03T16:26:11;5.30;99.90
17236;DHT22;8734;59.272;17.780;2023-03-03T16:28:55;5.40;99.90
17236;DHT22;8734;59.272;17.780;2023-03-03T16:31:30;5.40;99.90
17236;DHT22;8734;59.272;17.780;2023-03-03T16:34:06;5.50;99.90
17236;DHT22;8734;59.272;17.780;2023-03-03T16:36:51;5.50;99.90
17236;DHT22;8734;59.272;17.780;2023-03-03T16:39:26;5.50;99.90
17236;DHT22;8734;59.272;17.780;2023-03-03T16:42:01;5.40;99.90
17236;DHT22;8734;59.272;17.780;2023-03-03T16:44:38;5.40;99.90
17236;DHT22;8734;59.272;17.780;2023-03-03T16:47:22;5.40;99.90
17236;DHT22;8734;59.272;17.780;2023-03-03T16:50:06;5.40;99.90
17236;DHT22;8734;59.272;17.780;2023-03-03T16:52:42;5.50;99.90
17236;DHT22;8734;59.272;17.780;2023-03-03T16:55:16;5.50;99.90
17236;DHT22;8734;59.272;17.780;2023-03-03T16:57:56;5.60;99.90